createdAt,value
2019-03-24T00:02:15.181Z,4.33
2019-03-24T00:04:43.844Z,4.00
2019-03-24T00:07:12.787Z,4.43
2019-03-24T00:09:41.723Z,4.67
2019-03-24T00:12:10.694Z,4.50
2019-03-24T00:14:39.337Z,4.40
2019-03-24T00:17:07.960Z,4.70
2019-03-24T00:19:36.671Z,4.77
2019-03-24T00:22:05.737Z,4.43
2019-03-24T00:24:34.364Z,4.53
2019-03-24T00:27:03.235Z,4.40
2019-03-24T00:29:31.899Z,4.60
2019-03-24T00:32:00.592Z,4.70
2019-03-24T00:34:29.580Z,4.60
2019-03-24T00:36:58.460Z,4.20
2019-03-24T00:39:27.173Z,4.90
2019-03-24T00:41:55.871Z,4.60
2019-03-24T00:44:24.853Z,4.37
2019-03-24T00:46:53.611Z,4.90
2019-03-24T00:49:22.223Z,4.40
2019-03-24T00:51:51.113Z,3.67
2019-03-24T00:54:19.989Z,4.20
2019-03-24T00:56:48.677Z,4.27
2019-03-24T00:59:17.329Z,3.80
2019-03-24T01:01:46.042Z,3.60
2019-03-24T01:04:14.661Z,3.63
2019-03-24T01:06:43.618Z,4.20
2019-03-24T01:09:12.244Z,4.50
2019-03-24T01:11:40.894Z,3.93
2019-03-24T01:14:09.758Z,3.77
2019-03-24T01:16:38.707Z,3.73
2019-03-24T01:19:07.342Z,3.83
2019-03-24T01:21:36.543Z,4.53
2019-03-24T01:24:05.259Z,4.00
2019-03-24T01:26:38.396Z,4.03
2019-03-24T01:29:07.115Z,3.50
2019-03-24T01:31:36.013Z,4.57
2019-03-24T01:34:04.705Z,3.80
2019-03-24T01:36:33.652Z,4.40
2019-03-24T01:39:02.444Z,3.90
2019-03-24T01:41:31.129Z,4.10
2019-03-24T01:44:00.381Z,3.93
2019-03-24T01:46:29.391Z,4.23
2019-03-24T01:48:58.010Z,3.87
2019-03-24T01:51:26.647Z,4.30
2019-03-24T01:53:55.568Z,3.83
2019-03-24T01:56:24.639Z,3.37
2019-03-24T01:58:53.523Z,3.20
2019-03-24T02:01:22.508Z,3.50
2019-03-24T02:03:51.461Z,3.67
2019-03-24T02:06:20.478Z,3.97
2019-03-24T02:08:49.435Z,4.30
2019-03-24T02:11:18.335Z,3.83
2019-03-24T02:13:47.263Z,4.20
2019-03-24T02:16:16.307Z,3.27
2019-03-24T02:18:45.281Z,3.53
2019-03-24T02:21:14.031Z,3.10
2019-03-24T02:23:43.048Z,3.80
2019-03-24T02:26:11.674Z,3.60
2019-03-24T02:28:40.880Z,3.60
2019-03-24T02:31:09.796Z,2.90
2019-03-24T02:33:38.794Z,3.30
2019-03-24T02:36:07.514Z,3.00
2019-03-24T02:38:36.470Z,3.33
2019-03-24T02:41:05.421Z,3.20
2019-03-24T02:43:34.076Z,3.37
2019-03-24T02:46:03.146Z,3.33
2019-03-24T02:48:31.921Z,3.40
2019-03-24T02:51:00.629Z,3.27
2019-03-24T02:53:29.603Z,3.13
2019-03-24T02:55:58.578Z,3.00
2019-03-24T02:58:27.462Z,3.40
2019-03-24T03:00:56.400Z,2.90
2019-03-24T03:03:25.367Z,3.20
2019-03-24T03:05:54.327Z,2.97
2019-03-24T03:08:23.025Z,3.13
2019-03-24T03:10:51.961Z,2.63
2019-03-24T03:13:20.926Z,3.10
2019-03-24T03:15:49.949Z,3.30
2019-03-24T03:18:18.959Z,3.17
2019-03-24T03:20:47.661Z,3.27
2019-03-24T03:23:16.651Z,3.50
2019-03-24T03:25:45.613Z,3.60
2019-03-24T03:28:14.303Z,3.37
2019-03-24T03:30:43.244Z,3.07
2019-03-24T03:33:11.992Z,2.97
2019-03-24T03:35:40.711Z,3.50
2019-03-24T03:38:09.662Z,3.27
2019-03-24T03:40:38.405Z,3.50
2019-03-24T03:43:07.301Z,3.50
2019-03-24T03:45:39.154Z,3.27
2019-03-24T03:48:06.957Z,4.30
2019-03-24T03:50:35.908Z,3.57
2019-03-24T03:53:04.622Z,3.20
2019-03-24T03:55:33.565Z,3.63
2019-03-24T03:58:02.470Z,2.70
2019-03-24T04:00:37.447Z,2.93
2019-03-24T04:03:06.558Z,4.20
2019-03-24T04:05:35.576Z,3.47
2019-03-24T04:08:04.516Z,2.90
2019-03-24T04:10:33.413Z,3.17
2019-03-24T04:13:02.372Z,3.00
2019-03-24T04:15:31.324Z,3.07
2019-03-24T04:18:00.054Z,3.57
2019-03-24T04:20:28.766Z,2.80
2019-03-24T04:22:57.489Z,3.40
2019-03-24T04:25:26.387Z,3.07
2019-03-24T04:27:55.510Z,2.93
2019-03-24T04:30:24.202Z,2.90
2019-03-24T04:32:53.189Z,3.50
2019-03-24T04:35:21.829Z,3.77
2019-03-24T04:37:50.535Z,2.83
2019-03-24T04:40:19.236Z,3.13
2019-03-24T04:42:48.381Z,3.10
2019-03-24T04:45:17.093Z,3.23
2019-03-24T04:47:45.728Z,3.03
2019-03-24T04:50:14.700Z,3.03
2019-03-24T04:52:43.687Z,3.30
2019-03-24T04:55:12.633Z,2.73
2019-03-24T04:57:41.522Z,2.80
2019-03-24T05:00:10.661Z,2.87
2019-03-24T05:02:39.940Z,2.33
2019-03-24T05:05:08.800Z,2.93
2019-03-24T05:07:38.385Z,2.73
2019-03-24T05:10:08.592Z,2.50
2019-03-24T05:12:37.456Z,2.60
2019-03-24T05:15:06.296Z,2.83
2019-03-24T05:17:35.426Z,2.53
2019-03-24T05:20:04.434Z,2.97
2019-03-24T05:22:33.407Z,2.53
2019-03-24T05:25:02.019Z,2.63
2019-03-24T05:27:30.892Z,2.30
2019-03-24T05:29:59.548Z,2.60
2019-03-24T05:32:28.184Z,2.87
2019-03-24T05:34:56.818Z,3.00
2019-03-24T05:37:25.506Z,3.00
2019-03-24T05:39:54.632Z,2.73
2019-03-24T05:42:23.518Z,2.57
2019-03-24T05:44:52.521Z,2.30
2019-03-24T05:47:21.788Z,3.20
2019-03-24T05:49:51.016Z,3.60
2019-03-24T05:52:19.922Z,3.50
2019-03-24T05:54:48.894Z,3.23
2019-03-24T05:57:17.514Z,3.17
2019-03-24T05:59:46.801Z,3.90
2019-03-24T06:02:15.508Z,3.97
2019-03-24T06:04:44.199Z,3.97
2019-03-24T06:07:12.920Z,2.90
2019-03-24T06:09:41.913Z,3.60
2019-03-24T06:12:10.879Z,3.67
2019-03-24T06:14:39.612Z,4.00
2019-03-24T06:17:08.583Z,3.63
2019-03-24T06:19:37.575Z,3.70
2019-03-24T06:22:06.217Z,3.40
2019-03-24T06:24:35.123Z,4.53
2019-03-24T06:27:04.117Z,4.40
2019-03-24T06:29:32.828Z,4.13
2019-03-24T06:32:01.524Z,3.90
2019-03-24T06:34:30.174Z,3.03
2019-03-24T06:36:58.797Z,3.40
2019-03-24T06:39:27.455Z,3.27
2019-03-24T06:41:56.436Z,3.33
2019-03-24T06:44:25.364Z,3.47
2019-03-24T06:46:54.092Z,3.13
2019-03-24T06:49:22.827Z,3.20
2019-03-24T06:51:51.548Z,3.00
2019-03-24T06:54:20.470Z,2.50
2019-03-24T06:56:49.095Z,3.50
2019-03-24T06:59:17.733Z,2.80
2019-03-24T07:01:46.454Z,2.93
2019-03-24T07:04:15.336Z,3.37
2019-03-24T07:06:44.242Z,2.70
2019-03-24T07:09:12.901Z,2.87
2019-03-24T07:11:41.591Z,2.80
2019-03-24T07:14:10.512Z,2.80
2019-03-24T07:16:39.473Z,3.33
2019-03-24T07:19:08.688Z,3.13
2019-03-24T07:21:37.641Z,2.30
2019-03-24T07:24:06.632Z,2.80
2019-03-24T07:26:35.397Z,3.00
2019-03-24T07:29:04.611Z,2.60
2019-03-24T07:31:33.343Z,3.10
2019-03-24T07:34:02.326Z,2.43
2019-03-24T07:36:31.385Z,2.80
2019-03-24T07:39:00.329Z,3.10
2019-03-24T07:41:29.269Z,2.70
2019-03-24T07:43:58.247Z,2.90
2019-03-24T07:46:28.060Z,3.00
2019-03-24T07:48:57.320Z,2.57
2019-03-24T07:51:26.208Z,3.10
2019-03-24T07:53:54.888Z,2.37
2019-03-24T07:56:23.878Z,2.97
2019-03-24T07:58:52.586Z,3.40
2019-03-24T08:01:21.234Z,3.43
2019-03-24T08:03:50.232Z,8.13
2019-03-24T08:06:18.953Z,12.20
2019-03-24T08:08:47.676Z,15.70
2019-03-24T08:11:16.385Z,20.10
2019-03-24T08:13:53.821Z,17.97
2019-03-24T08:16:15.965Z,15.57
2019-03-24T08:18:44.669Z,14.60
2019-03-24T08:21:13.623Z,14.43
2019-03-24T08:23:42.586Z,15.20
2019-03-24T08:26:11.817Z,14.13
2019-03-24T08:28:40.468Z,13.83
2019-03-24T08:31:09.451Z,13.30
2019-03-24T08:33:38.179Z,12.87
2019-03-24T08:36:06.816Z,12.87
2019-03-24T08:38:35.804Z,15.07
2019-03-24T08:41:04.505Z,12.10
2019-03-24T08:43:33.475Z,12.17
2019-03-24T08:46:02.185Z,11.00
2019-03-24T08:48:40.327Z,11.10
2019-03-24T08:51:01.255Z,12.83
2019-03-24T08:53:30.222Z,11.23
2019-03-24T08:55:59.208Z,10.33
2019-03-24T08:58:27.847Z,10.60
2019-03-24T09:00:56.746Z,11.00
2019-03-24T09:03:25.376Z,10.37
2019-03-24T09:05:54.268Z,11.67
2019-03-24T09:08:22.935Z,10.00
2019-03-24T09:10:51.827Z,10.40
2019-03-24T09:13:20.969Z,11.00
2019-03-24T09:15:49.702Z,9.57
2019-03-24T09:18:18.677Z,9.13
2019-03-24T09:20:47.829Z,8.70
2019-03-24T09:23:16.972Z,8.90
2019-03-24T09:25:46.103Z,9.40
2019-03-24T09:28:14.800Z,9.37
2019-03-24T09:30:43.422Z,9.10
2019-03-24T09:33:12.467Z,9.47
2019-03-24T09:35:41.690Z,8.73
2019-03-24T09:38:10.427Z,8.47
2019-03-24T09:40:39.359Z,7.47
2019-03-24T09:43:08.062Z,8.20
2019-03-24T09:45:37.011Z,8.53
2019-03-24T09:48:06.268Z,8.57
2019-03-24T09:50:34.964Z,7.80
2019-03-24T09:53:04.067Z,7.70
2019-03-24T09:55:32.773Z,7.97
2019-03-24T09:58:01.770Z,7.67
2019-03-24T10:00:30.744Z,8.30
2019-03-24T10:02:59.465Z,7.83
2019-03-24T10:05:28.204Z,8.30
2019-03-24T10:07:57.125Z,8.33
2019-03-24T10:10:25.855Z,7.00
2019-03-24T10:12:55.205Z,6.90
2019-03-24T10:15:24.160Z,6.37
2019-03-24T10:17:53.058Z,7.47
2019-03-24T10:20:21.976Z,7.17
2019-03-24T10:22:50.853Z,6.20
2019-03-24T10:25:19.796Z,7.33
2019-03-24T10:27:48.758Z,6.87
2019-03-24T10:30:17.401Z,6.67
2019-03-24T10:32:46.423Z,6.23
2019-03-24T10:35:15.378Z,7.47
2019-03-24T10:37:44.268Z,7.27
2019-03-24T10:40:13.314Z,7.00
2019-03-24T10:42:42.554Z,7.00
2019-03-24T10:45:11.192Z,6.43
2019-03-24T10:47:40.144Z,6.80
2019-03-24T10:50:10.168Z,6.17
2019-03-24T10:52:38.874Z,6.53
2019-03-24T10:55:09.135Z,6.50
2019-03-24T10:57:37.984Z,6.53
2019-03-24T11:00:07.148Z,5.83
2019-03-24T11:02:35.862Z,6.83
2019-03-24T11:05:05.000Z,5.70
2019-03-24T11:07:34.265Z,6.40
2019-03-24T11:10:03.028Z,5.90
2019-03-24T11:12:31.660Z,6.30
2019-03-24T11:15:00.554Z,5.87
2019-03-24T11:17:29.498Z,5.73
2019-03-24T11:19:58.394Z,5.97
2019-03-24T11:22:27.565Z,5.20
2019-03-24T11:24:56.176Z,5.33
2019-03-24T11:27:25.056Z,5.77
2019-03-24T11:29:55.780Z,5.47
2019-03-24T11:32:24.488Z,6.07
2019-03-24T11:34:53.402Z,6.33
2019-03-24T11:37:22.128Z,5.33
2019-03-24T11:39:50.768Z,5.50
2019-03-24T11:42:19.651Z,5.20
2019-03-24T11:44:48.619Z,5.67
2019-03-24T11:47:26.336Z,5.50
2019-03-24T11:49:49.224Z,5.80
2019-03-24T11:52:18.344Z,5.03
2019-03-24T11:54:47.048Z,5.00
2019-03-24T11:57:15.690Z,5.63
2019-03-24T11:59:44.743Z,5.20
2019-03-24T12:02:13.371Z,5.20
2019-03-24T12:04:42.896Z,4.60
2019-03-24T12:07:11.800Z,5.20
2019-03-24T12:09:40.756Z,4.80
2019-03-24T12:12:09.454Z,5.30
2019-03-24T12:14:38.675Z,4.43
2019-03-24T12:17:07.381Z,5.17
2019-03-24T12:19:36.290Z,5.00
2019-03-24T12:22:04.993Z,4.90
2019-03-24T12:24:33.932Z,4.60
2019-03-24T12:27:02.816Z,5.00
2019-03-24T12:29:31.456Z,5.13
2019-03-24T12:32:00.377Z,5.10
2019-03-24T12:34:29.921Z,4.20
2019-03-24T12:36:58.548Z,4.50
2019-03-24T12:39:27.177Z,4.87
2019-03-24T12:41:56.644Z,4.80
2019-03-24T12:44:25.572Z,4.50
2019-03-24T12:46:54.196Z,3.90
2019-03-24T12:49:22.852Z,4.80
2019-03-24T12:51:51.477Z,4.87
2019-03-24T12:54:20.109Z,4.30
2019-03-24T12:56:49.090Z,4.13
2019-03-24T12:59:18.300Z,5.07
2019-03-24T13:01:47.183Z,4.33
2019-03-24T13:04:15.876Z,4.00
2019-03-24T13:06:44.510Z,4.70
2019-03-24T13:09:13.518Z,3.83
2019-03-24T13:11:42.170Z,3.90
2019-03-24T13:14:11.630Z,3.70
2019-03-24T13:16:40.363Z,3.70
2019-03-24T13:19:08.987Z,3.80
2019-03-24T13:21:38.239Z,4.20
2019-03-24T13:24:06.940Z,4.50
2019-03-24T13:26:35.570Z,3.57
2019-03-24T13:29:04.571Z,4.03
2019-03-24T13:31:33.200Z,3.77
2019-03-24T13:34:02.210Z,3.77
2019-03-24T13:36:30.931Z,4.30
2019-03-24T13:38:59.869Z,3.70
2019-03-24T13:41:28.586Z,4.10
2019-03-24T13:43:57.533Z,3.47
2019-03-24T13:46:26.189Z,3.70
2019-03-24T13:48:54.812Z,4.20
2019-03-24T13:51:23.508Z,3.20
2019-03-24T13:53:52.458Z,3.40
2019-03-24T13:56:21.455Z,3.93
2019-03-24T13:58:50.068Z,3.13
2019-03-24T14:01:18.868Z,3.20
2019-03-24T14:03:47.580Z,3.43
2019-03-24T14:06:16.211Z,3.57
2019-03-24T14:08:44.920Z,3.43
2019-03-24T14:11:13.636Z,3.40
2019-03-24T14:13:42.272Z,2.87
2019-03-24T14:16:17.337Z,3.30
2019-03-24T14:18:46.056Z,3.03
2019-03-24T14:21:14.757Z,3.70
2019-03-24T14:23:43.470Z,3.27
2019-03-24T14:26:12.168Z,2.97
2019-03-24T14:28:40.784Z,3.30
2019-03-24T14:31:09.703Z,3.33
2019-03-24T14:33:38.327Z,3.77
2019-03-24T14:36:07.340Z,3.80
2019-03-24T14:38:35.967Z,3.67
2019-03-24T14:41:04.924Z,3.30
2019-03-24T14:43:33.863Z,3.87
2019-03-24T14:46:02.851Z,4.30
2019-03-24T14:48:31.496Z,3.70
2019-03-24T14:51:00.215Z,3.83
2019-03-24T14:53:29.126Z,3.80
2019-03-24T14:55:58.010Z,3.70
2019-03-24T14:58:26.988Z,3.80
2019-03-24T15:00:55.695Z,4.50
2019-03-24T15:03:24.688Z,4.20
2019-03-24T15:05:53.848Z,3.97
2019-03-24T15:08:22.836Z,3.60
2019-03-24T15:10:51.805Z,3.70
2019-03-24T15:13:20.531Z,4.70
2019-03-24T15:15:49.180Z,3.83
2019-03-24T15:18:17.886Z,3.93
2019-03-24T15:20:46.612Z,4.00
2019-03-24T15:26:26.402Z,4.00
2019-03-24T15:28:55.116Z,4.20
2019-03-24T15:31:24.025Z,4.53
2019-03-24T15:33:53.089Z,4.17
2019-03-24T15:36:21.717Z,3.87
2019-03-24T15:38:50.614Z,4.13
2019-03-24T15:41:19.589Z,3.90
2019-03-24T15:43:48.403Z,3.70
2019-03-24T15:46:17.113Z,3.47
2019-03-24T15:48:45.758Z,3.80
2019-03-24T15:51:17.155Z,4.23
2019-03-24T15:53:44.928Z,4.47
2019-03-24T15:56:13.548Z,3.40
2019-03-24T15:58:42.195Z,3.77
2019-03-24T16:01:10.891Z,3.73
2019-03-24T16:03:39.782Z,3.90
2019-03-24T16:06:08.411Z,3.67
2019-03-24T16:08:37.048Z,3.40
2019-03-24T16:11:06.037Z,4.07
2019-03-24T16:13:34.953Z,3.20
2019-03-24T16:16:03.908Z,3.80
2019-03-24T16:18:32.807Z,2.90
2019-03-24T16:21:01.519Z,3.07
2019-03-24T16:23:30.167Z,3.47
2019-03-24T16:25:59.048Z,2.97
2019-03-24T16:28:27.688Z,3.00
2019-03-24T16:30:57.036Z,3.40
2019-03-24T16:33:25.704Z,3.90
2019-03-24T16:35:54.417Z,3.17
2019-03-24T16:38:23.867Z,3.03
2019-03-24T16:40:57.920Z,3.70
2019-03-24T16:43:26.880Z,3.10
2019-03-24T16:45:55.636Z,2.80
2019-03-24T16:48:24.804Z,3.23
2019-03-24T16:50:53.451Z,3.50
2019-03-24T16:53:22.387Z,3.60
2019-03-24T16:55:51.332Z,2.90
2019-03-24T16:58:20.033Z,3.70
2019-03-24T17:00:49.002Z,3.07
2019-03-24T17:03:17.612Z,3.27
2019-03-24T17:05:46.368Z,2.90
2019-03-24T17:08:15.054Z,3.23
2019-03-24T17:10:43.699Z,3.43
2019-03-24T17:13:12.333Z,3.00
2019-03-24T17:15:41.055Z,3.20
2019-03-24T17:18:09.780Z,3.50
2019-03-24T17:20:38.481Z,3.20
2019-03-24T17:23:07.696Z,3.43
2019-03-24T17:25:36.435Z,3.70
2019-03-24T17:28:05.135Z,3.07
2019-03-24T17:30:33.850Z,3.70
2019-03-24T17:33:02.552Z,3.27
2019-03-24T17:35:31.530Z,3.37
2019-03-24T17:38:00.212Z,2.93
2019-03-24T17:40:28.931Z,3.17
2019-03-24T17:42:57.656Z,3.17
2019-03-24T17:45:26.610Z,2.50
2019-03-24T17:47:55.654Z,3.20
2019-03-24T17:50:24.379Z,3.20
2019-03-24T17:52:53.285Z,3.40
2019-03-24T17:55:27.674Z,4.30
2019-03-24T17:57:53.136Z,5.30
2019-03-24T18:00:29.790Z,5.33
2019-03-24T18:02:58.732Z,5.40
2019-03-24T18:05:27.968Z,6.50
2019-03-24T18:07:56.856Z,7.10
2019-03-24T18:10:25.497Z,6.40
2019-03-24T18:12:54.221Z,7.30
2019-03-24T18:15:23.414Z,5.90
2019-03-24T18:17:52.383Z,5.90
2019-03-24T18:20:29.093Z,6.00
2019-03-24T18:22:58.349Z,6.20
2019-03-24T18:25:27.136Z,6.63
2019-03-24T18:27:55.931Z,6.00
2019-03-24T18:30:25.281Z,6.40
2019-03-24T18:32:54.234Z,5.73
2019-03-24T18:35:22.947Z,5.60
2019-03-24T18:37:51.654Z,6.40
2019-03-24T18:40:20.304Z,7.33
2019-03-24T18:42:49.006Z,6.80
2019-03-24T18:45:18.258Z,7.17
2019-03-24T18:47:46.952Z,6.87
2019-03-24T18:50:15.775Z,6.17
2019-03-24T18:52:45.182Z,6.17
2019-03-24T18:55:14.228Z,5.97
2019-03-24T18:57:43.216Z,6.10
2019-03-24T19:00:12.513Z,6.10
2019-03-24T19:02:41.224Z,6.80
2019-03-24T19:05:10.407Z,6.13
2019-03-24T19:07:39.188Z,6.07
2019-03-24T19:10:08.529Z,5.87
2019-03-24T19:12:37.238Z,6.20
2019-03-24T19:15:06.704Z,6.27
2019-03-24T19:17:35.893Z,5.47
2019-03-24T19:20:05.039Z,5.70
2019-03-24T19:22:33.989Z,5.97
2019-03-24T19:25:02.921Z,5.70
2019-03-24T19:27:31.571Z,6.20
2019-03-24T19:30:03.726Z,6.07
2019-03-24T19:32:32.694Z,6.07
2019-03-24T19:35:01.324Z,6.03
2019-03-24T19:37:30.276Z,6.90
2019-03-24T19:39:59.000Z,10.30
2019-03-24T19:42:27.955Z,8.90
2019-03-24T19:44:56.684Z,7.30
2019-03-24T19:47:25.420Z,7.70
2019-03-24T19:49:54.095Z,6.80
2019-03-24T19:52:23.097Z,7.23
2019-03-24T19:54:51.973Z,7.47
2019-03-24T19:57:20.932Z,6.83
2019-03-24T19:59:49.571Z,7.97
2019-03-24T20:02:18.291Z,6.80
2019-03-24T20:04:46.914Z,7.30
2019-03-24T20:07:16.080Z,6.90
2019-03-24T20:09:44.715Z,7.10
2019-03-24T20:12:15.854Z,6.80
2019-03-24T20:14:43.800Z,7.07
2019-03-24T20:17:12.505Z,6.40
2019-03-24T20:19:41.216Z,6.83
2019-03-24T20:22:10.099Z,6.40
2019-03-24T20:24:38.732Z,6.60
2019-03-24T20:27:07.729Z,6.47
2019-03-24T20:29:36.438Z,6.37
2019-03-24T20:32:05.368Z,5.63
2019-03-24T20:34:34.344Z,7.00
2019-03-24T20:37:03.309Z,7.07
2019-03-24T20:39:31.941Z,6.47
2019-03-24T20:42:01.145Z,6.90
2019-03-24T20:44:29.955Z,7.03
2019-03-24T20:46:58.592Z,6.13
2019-03-24T20:49:27.501Z,6.47
2019-03-24T20:51:56.451Z,6.73
2019-03-24T20:54:25.082Z,6.40
2019-03-24T20:56:53.780Z,6.63
2019-03-24T20:59:22.483Z,7.03
2019-03-24T21:01:51.115Z,6.37
2019-03-24T21:04:20.374Z,6.73
2019-03-24T21:06:49.325Z,6.23
2019-03-24T21:09:17.960Z,6.40
2019-03-24T21:11:46.865Z,6.37
2019-03-24T21:14:15.603Z,6.33
2019-03-24T21:16:44.246Z,6.93
2019-03-24T21:19:13.226Z,6.10
2019-03-24T21:21:42.108Z,5.80
2019-03-24T21:24:11.090Z,6.20
2019-03-24T21:26:39.773Z,6.20
2019-03-24T21:29:08.635Z,5.87
2019-03-24T21:31:37.263Z,5.63
2019-03-24T21:34:06.151Z,6.53
2019-03-24T21:36:34.849Z,6.67
2019-03-24T21:39:05.289Z,6.13
2019-03-24T21:41:34.268Z,6.30
2019-03-24T21:44:03.246Z,5.77
2019-03-24T21:46:31.968Z,6.67
2019-03-24T21:49:00.890Z,6.33
2019-03-24T21:51:29.610Z,6.53
2019-03-24T21:53:58.396Z,5.47
2019-03-24T21:56:27.345Z,5.77
2019-03-24T21:58:56.080Z,5.47
2019-03-24T22:01:24.788Z,6.17
2019-03-24T22:03:53.796Z,6.33
2019-03-24T22:06:22.690Z,6.00
2019-03-24T22:09:18.387Z,7.63
2019-03-24T22:11:47.008Z,6.10
2019-03-24T22:14:15.767Z,6.60
2019-03-24T22:16:44.734Z,6.50
2019-03-24T22:19:13.641Z,5.87
2019-03-24T22:21:42.363Z,5.77
2019-03-24T22:24:11.008Z,7.20
2019-03-24T22:26:39.647Z,5.70
2019-03-24T22:29:08.264Z,6.47
2019-03-24T22:31:37.252Z,6.90
2019-03-24T22:34:06.271Z,6.13
2019-03-24T22:36:35.520Z,6.53
2019-03-24T22:39:06.026Z,6.30
2019-03-24T22:41:34.926Z,6.07
2019-03-24T22:44:03.679Z,5.77
2019-03-24T22:46:32.557Z,6.63
2019-03-24T22:49:01.465Z,5.30
2019-03-24T22:51:30.166Z,5.70
2019-03-24T22:54:03.586Z,5.90
2019-03-24T22:56:30.414Z,5.97
2019-03-24T22:58:59.068Z,6.03
2019-03-24T23:01:27.788Z,6.50
2019-03-24T23:03:56.817Z,6.30
2019-03-24T23:06:25.935Z,5.47
2019-03-24T23:08:55.107Z,6.53
2019-03-24T23:11:24.014Z,6.10
2019-03-24T23:13:53.145Z,6.33
2019-03-24T23:16:21.780Z,6.47
2019-03-24T23:18:50.480Z,6.20
2019-03-24T23:21:19.451Z,6.10
2019-03-24T23:23:48.152Z,5.90
2019-03-24T23:26:16.872Z,6.40
2019-03-24T23:28:45.578Z,6.20
2019-03-24T23:31:14.230Z,6.60
2019-03-24T23:33:43.146Z,5.90
2019-03-24T23:36:12.147Z,6.73
2019-03-24T23:38:41.365Z,5.50
2019-03-24T23:41:10.091Z,5.80
2019-03-24T23:43:39.300Z,5.83
2019-03-24T23:46:08.076Z,6.63
2019-03-24T23:48:37.264Z,6.00
2019-03-24T23:51:06.168Z,5.60
2019-03-24T23:53:34.801Z,5.70
2019-03-24T23:56:03.505Z,5.77
2019-03-24T23:58:40.738Z,5.87
